sensor_id;sensor_type;location;lat;lon;timestamp;temperature;humidity
18950;DHT22;9608;49.288;8.130;2023-09-18T00:00:19;20.80;99.90
18950;DHT22;9608;49.288;8.130;2023-09-18T00:02:47;20.80;99.90
18950;DHT22;9608;49.288;8.130;2023-09-18T00:05:13;20.90;99.90
18950;DHT22;9608;49.288;8.130;2023-09-18T00:07:41;20.90;99.90
18950;DHT22;9608;49.288;8.130;2023-09-18T00:10:08;20.90;99.90
18950;DHT22;9608;49.288;8.130;2023-09-18T00:12:35;20.90;99.90
18950;DHT22;9608;49.288;8.130;2023-09-18T00:15:02;20.90;99.90
18950;DHT22;9608;49.288;8.130;2023-09-18T00:17:31;21.00;99.90
18950;DHT22;9608;49.288;8.130;2023-09-18T00:19:58;21.00;99.90
18950;DHT22;9608;49.288;8.130;2023-09-18T00:22:25;21.00;99.90
18950;DHT22;9608;49.288;8.130;2023-09-18T00:24:52;20.90;99.90
18950;DHT22;9608;49.288;8.130;2023-09-18T00:27:18;20.80;99.90
18950;DHT22;9608;49.288;8.130;2023-09-18T00:29:45;20.70;99.90
18950;DHT22;9608;49.288;8.130;2023-09-18T00:32:12;20.70;99.90
18950;DHT22;9608;49.288;8.130;2023-09-18T00:34:40;20.60;99.90
18950;DHT22;9608;49.288;8.130;2023-09-18T00:37:06;20.60;99.90
18950;DHT22;9608;49.288;8.130;2023-09-18T00:39:35;20.60;99.90
18950;DHT22;9608;49.288;8.130;2023-09-18T00:42:02;20.60;99.90
18950;DHT22;9608;49.288;8.130;2023-09-18T00:44:29;20.70;99.90
18950;DHT22;9608;49.288;8.130;2023-09-18T00:46:56;20.80;99.90
18950;DHT22;9608;49.288;8.130;2023-09-18T00:49:24;20.80;99.90
18950;DHT22;9608;49.288;8.130;2023-09-18T00:51:52;20.80;99.90
18950;DHT22;9608;49.288;8.130;2023-09-18T00:54:19;20.80;99.90
18950;DHT22;9608;49.288;8.130;2023-09-18T00:56:46;20.80;99.90
18950;DHT22;9608;49.288;8.130;2023-09-18T00:59:14;20.80;99.90
18950;DHT22;9608;49.288;8.130;2023-09-18T01:01:42;20.70;99.90
18950;DHT22;9608;49.288;8.130;2023-09-18T01:04:09;20.70;99.90
18950;DHT22;9608;49.288;8.130;2023-09-18T01:06:36;20.70;99.90
18950;DHT22;9608;49.288;8.130;2023-09-18T01:09:04;20.70;99.90
18950;DHT22;9608;49.288;8.130;2023-09-18T01:11:43;20.70;99.90
18950;DHT22;9608;49.288;8.130;2023-09-18T01:14:19;20.70;99.90
18950;DHT22;9608;49.288;8.130;2023-09-18T01:16:51;20.80;99.90
18950;DHT22;9608;49.288;8.130;2023-09-18T01:19:35;20.70;99.90
18950;DHT22;9608;49.288;8.130;2023-09-18T01:22:02;20.50;99.90
18950;DHT22;9608;49.288;8.130;2023-09-18T01:24:31;20.30;99.90
18950;DHT22;9608;49.288;8.130;2023-09-18T01:26:57;20.10;99.90
18950;DHT22;9608;49.288;8.130;2023-09-18T01:29:24;20.10;99.90
18950;DHT22;9608;49.288;8.130;2023-09-18T01:31:51;20.10;99.90
18950;DHT22;9608;49.288;8.130;2023-09-18T01:34:19;20.10;99.90
18950;DHT22;9608;49.288;8.130;2023-09-18T01:36:47;20.10;99.90
18950;DHT22;9608;49.288;8.130;2023-09-18T01:39:16;20.10;99.90
18950;DHT22;9608;49.288;8.130;2023-09-18T01:41:45;20.10;99.90
18950;DHT22;9608;49.288;8.130;2023-09-18T01:44:12;20.00;99.90
18950;DHT22;9608;49.288;8.130;2023-09-18T01:46:39;20.10;99.90
18950;DHT22;9608;49.288;8.130;2023-09-18T01:49:06;20.10;99.90
18950;DHT22;9608;49.288;8.130;2023-09-18T01:51:33;20.10;99.90
18950;DHT22;9608;49.288;8.130;2023-09-18T01:54:00;20.00;99.90
18950;DHT22;9608;49.288;8.130;2023-09-18T01:56:27;20.00;99.90
18950;DHT22;9608;49.288;8.130;2023-09-18T01:58:55;19.90;99.90
18950;DHT22;9608;49.288;8.130;2023-09-18T02:01:21;19.90;99.90
18950;DHT22;9608;49.288;8.130;2023-09-18T02:03:48;19.90;99.90
18950;DHT22;9608;49.288;8.130;2023-09-18T02:06:15;19.90;99.90
18950;DHT22;9608;49.288;8.130;2023-09-18T02:08:41;19.90;99.90
18950;DHT22;9608;49.288;8.130;2023-09-18T02:11:08;19.90;99.90
18950;DHT22;9608;49.288;8.130;2023-09-18T02:13:35;20.00;99.90
18950;DHT22;9608;49.288;8.130;2023-09-18T02:16:03;20.20;99.90
18950;DHT22;9608;49.288;8.130;2023-09-18T02:18:30;20.60;99.90
18950;DHT22;9608;49.288;8.130;2023-09-18T02:20:56;21.10;99.90
18950;DHT22;9608;49.288;8.130;2023-09-18T02:23:23;21.70;99.90
18950;DHT22;9608;49.288;8.130;2023-09-18T02:25:55;22.10;99.90
18950;DHT22;9608;49.288;8.130;2023-09-18T02:28:22;22.50;99.90
18950;DHT22;9608;49.288;8.130;2023-09-18T02:30:49;22.70;99.90
18950;DHT22;9608;49.288;8.130;2023-09-18T02:33:17;22.80;99.90
18950;DHT22;9608;49.288;8.130;2023-09-18T02:35:44;22.90;99.90
18950;DHT22;9608;49.288;8.130;2023-09-18T02:38:11;23.00;99.90
18950;DHT22;9608;49.288;8.130;2023-09-18T02:40:38;23.00;99.90
18950;DHT22;9608;49.288;8.130;2023-09-18T02:43:05;23.00;99.90
18950;DHT22;9608;49.288;8.130;2023-09-18T02:45:31;22.80;99.90
18950;DHT22;9608;49.288;8.130;2023-09-18T02:47:58;22.70;99.90
18950;DHT22;9608;49.288;8.130;2023-09-18T02:50:26;22.70;99.90
18950;DHT22;9608;49.288;8.130;2023-09-18T02:52:53;22.60;99.90
18950;DHT22;9608;49.288;8.130;2023-09-18T02:55:20;22.50;99.90
18950;DHT22;9608;49.288;8.130;2023-09-18T02:57:47;22.50;99.90
18950;DHT22;9608;49.288;8.130;2023-09-18T03:00:14;22.40;99.90
18950;DHT22;9608;49.288;8.130;2023-09-18T03:02:40;22.30;99.90
18950;DHT22;9608;49.288;8.130;2023-09-18T03:05:07;22.20;99.90
18950;DHT22;9608;49.288;8.130;2023-09-18T03:07:36;22.20;99.90
18950;DHT22;9608;49.288;8.130;2023-09-18T03:10:04;22.20;99.90
18950;DHT22;9608;49.288;8.130;2023-09-18T03:12:31;22.00;99.90
18950;DHT22;9608;49.288;8.130;2023-09-18T03:14:59;21.90;99.90
18950;DHT22;9608;49.288;8.130;2023-09-18T03:17:25;21.80;99.90
18950;DHT22;9608;49.288;8.130;2023-09-18T03:19:52;21.80;99.90
18950;DHT22;9608;49.288;8.130;2023-09-18T03:22:19;21.80;99.90
18950;DHT22;9608;49.288;8.130;2023-09-18T03:24:47;21.80;99.90
18950;DHT22;9608;49.288;8.130;2023-09-18T03:27:14;21.70;99.90
18950;DHT22;9608;49.288;8.130;2023-09-18T03:29:41;21.70;99.90
18950;DHT22;9608;49.288;8.130;2023-09-18T03:32:07;21.80;99.90
18950;DHT22;9608;49.288;8.130;2023-09-18T03:34:37;21.80;99.90
18950;DHT22;9608;49.288;8.130;2023-09-18T03:37:04;21.80;99.90
18950;DHT22;9608;49.288;8.130;2023-09-18T03:39:31;21.70;99.90
18950;DHT22;9608;49.288;8.130;2023-09-18T03:41:59;21.60;99.90
18950;DHT22;9608;49.288;8.130;2023-09-18T03:44:25;21.50;99.90
18950;DHT22;9608;49.288;8.130;2023-09-18T03:46:52;21.30;99.90
18950;DHT22;9608;49.288;8.130;2023-09-18T03:49:19;21.20;99.90
18950;DHT22;9608;49.288;8.130;2023-09-18T03:51:45;21.00;99.90
18950;DHT22;9608;49.288;8.130;2023-09-18T03:54:12;20.90;99.90
18950;DHT22;9608;49.288;8.130;2023-09-18T03:56:39;20.90;99.90
18950;DHT22;9608;49.288;8.130;2023-09-18T03:59:07;20.90;99.90
18950;DHT22;9608;49.288;8.130;2023-09-18T04:01:34;20.80;99.90
18950;DHT22;9608;49.288;8.130;2023-09-18T04:04:00;20.60;99.90
18950;DHT22;9608;49.288;8.130;2023-09-18T04:06:36;20.50;99.90
18950;DHT22;9608;49.288;8.130;2023-09-18T04:09:02;20.40;99.90
18950;DHT22;9608;49.288;8.130;2023-09-18T04:11:29;20.40;99.90
18950;DHT22;9608;49.288;8.130;2023-09-18T04:13:57;20.30;99.90
18950;DHT22;9608;49.288;8.130;2023-09-18T04:16:25;20.10;99.90
18950;DHT22;9608;49.288;8.130;2023-09-18T04:18:53;20.00;99.90
18950;DHT22;9608;49.288;8.130;2023-09-18T04:21:19;19.90;99.90
18950;DHT22;9608;49.288;8.130;2023-09-18T04:23:47;19.90;99.90
18950;DHT22;9608;49.288;8.130;2023-09-18T04:26:13;19.80;99.90
18950;DHT22;9608;49.288;8.130;2023-09-18T04:28:41;19.80;99.90
18950;DHT22;9608;49.288;8.130;2023-09-18T04:31:08;19.70;99.90
18950;DHT22;9608;49.288;8.130;2023-09-18T04:33:37;19.70;99.90
18950;DHT22;9608;49.288;8.130;2023-09-18T04:36:04;19.70;99.90
18950;DHT22;9608;49.288;8.130;2023-09-18T04:38:31;19.60;99.90
18950;DHT22;9608;49.288;8.130;2023-09-18T04:40:58;19.50;99.90
18950;DHT22;9608;49.288;8.130;2023-09-18T04:43:25;19.40;99.90
18950;DHT22;9608;49.288;8.130;2023-09-18T04:45:52;19.40;99.90
18950;DHT22;9608;49.288;8.130;2023-09-18T04:48:18;19.40;99.90
18950;DHT22;9608;49.288;8.130;2023-09-18T04:50:46;19.30;99.90
18950;DHT22;9608;49.288;8.130;2023-09-18T04:53:13;19.20;99.90
18950;DHT22;9608;49.288;8.130;2023-09-18T04:55:40;19.20;99.90
18950;DHT22;9608;49.288;8.130;2023-09-18T04:58:06;19.10;99.90
18950;DHT22;9608;49.288;8.130;2023-09-18T05:00:33;19.10;99.90
18950;DHT22;9608;49.288;8.130;2023-09-18T05:03:00;19.00;99.90
18950;DHT22;9608;49.288;8.130;2023-09-18T05:05:28;19.10;99.90
18950;DHT22;9608;49.288;8.130;2023-09-18T05:07:57;19.00;99.90
18950;DHT22;9608;49.288;8.130;2023-09-18T05:10:23;19.00;99.90
18950;DHT22;9608;49.288;8.130;2023-09-18T05:12:51;19.00;99.90
18950;DHT22;9608;49.288;8.130;2023-09-18T05:15:23;19.10;99.90
18950;DHT22;9608;49.288;8.130;2023-09-18T05:17:51;19.10;99.90
18950;DHT22;9608;49.288;8.130;2023-09-18T05:20:22;19.10;99.90
18950;DHT22;9608;49.288;8.130;2023-09-18T05:22:50;19.00;99.90
18950;DHT22;9608;49.288;8.130;2023-09-18T05:25:20;19.00;99.90
18950;DHT22;9608;49.288;8.130;2023-09-18T05:27:48;19.10;99.90
18950;DHT22;9608;49.288;8.130;2023-09-18T05:30:23;19.10;99.90
18950;DHT22;9608;49.288;8.130;2023-09-18T05:32:50;19.30;99.90
18950;DHT22;9608;49.288;8.130;2023-09-18T05:35:18;19.40;99.90
18950;DHT22;9608;49.288;8.130;2023-09-18T05:37:45;19.50;99.90
18950;DHT22;9608;49.288;8.130;2023-09-18T05:40:12;19.60;99.90
18950;DHT22;9608;49.288;8.130;2023-09-18T05:42:42;19.60;99.90
18950;DHT22;9608;49.288;8.130;2023-09-18T05:45:10;19.70;99.90
18950;DHT22;9608;49.288;8.130;2023-09-18T05:47:37;19.70;99.90
18950;DHT22;9608;49.288;8.130;2023-09-18T05:50:04;19.70;99.90
18950;DHT22;9608;49.288;8.130;2023-09-18T05:52:32;19.80;99.90
18950;DHT22;9608;49.288;8.130;2023-09-18T05:54:59;19.80;99.90
18950;DHT22;9608;49.288;8.130;2023-09-18T05:57:26;19.90;99.90
18950;DHT22;9608;49.288;8.130;2023-09-18T05:59:55;20.00;99.90
18950;DHT22;9608;49.288;8.130;2023-09-18T06:02:22;20.10;99.90
18950;DHT22;9608;49.288;8.130;2023-09-18T06:04:54;20.10;99.90
18950;DHT22;9608;49.288;8.130;2023-09-18T06:07:24;20.20;99.90
18950;DHT22;9608;49.288;8.130;2023-09-18T06:09:59;20.20;99.90
18950;DHT22;9608;49.288;8.130;2023-09-18T06:12:31;20.20;99.90
18950;DHT22;9608;49.288;8.130;2023-09-18T06:14:59;20.30;99.90
18950;DHT22;9608;49.288;8.130;2023-09-18T06:17:26;20.30;99.90
18950;DHT22;9608;49.288;8.130;2023-09-18T06:19:53;20.30;99.90
18950;DHT22;9608;49.288;8.130;2023-09-18T06:22:23;20.30;99.90
18950;DHT22;9608;49.288;8.130;2023-09-18T06:24:49;20.30;99.90
18950;DHT22;9608;49.288;8.130;2023-09-18T06:27:16;20.30;99.90
18950;DHT22;9608;49.288;8.130;2023-09-18T06:29:44;20.40;99.90
18950;DHT22;9608;49.288;8.130;2023-09-18T06:32:13;20.40;99.90
18950;DHT22;9608;49.288;8.130;2023-09-18T06:34:39;20.40;99.90
18950;DHT22;9608;49.288;8.130;2023-09-18T06:37:09;20.50;99.90
18950;DHT22;9608;49.288;8.130;2023-09-18T06:39:37;20.50;99.90
18950;DHT22;9608;49.288;8.130;2023-09-18T06:42:07;20.40;99.90
18950;DHT22;9608;49.288;8.130;2023-09-18T06:44:34;20.40;99.90
18950;DHT22;9608;49.288;8.130;2023-09-18T06:47:02;20.40;99.90
18950;DHT22;9608;49.288;8.130;2023-09-18T06:49:31;20.40;99.90
18950;DHT22;9608;49.288;8.130;2023-09-18T06:51:57;20.50;99.90
18950;DHT22;9608;49.288;8.130;2023-09-18T06:54:25;20.50;99.90
18950;DHT22;9608;49.288;8.130;2023-09-18T06:56:52;20.40;99.90
18950;DHT22;9608;49.288;8.130;2023-09-18T06:59:20;20.50;99.90
18950;DHT22;9608;49.288;8.130;2023-09-18T07:01:47;20.50;99.90
18950;DHT22;9608;49.288;8.130;2023-09-18T07:04:14;20.50;99.90
18950;DHT22;9608;49.288;8.130;2023-09-18T07:06:42;20.50;99.90
18950;DHT22;9608;49.288;8.130;2023-09-18T07:09:10;20.50;99.90
18950;DHT22;9608;49.288;8.130;2023-09-18T07:11:38;20.50;99.90
18950;DHT22;9608;49.288;8.130;2023-09-18T07:14:05;20.60;99.90
18950;DHT22;9608;49.288;8.130;2023-09-18T07:16:33;20.60;99.90
18950;DHT22;9608;49.288;8.130;2023-09-18T07:19:00;20.70;99.90
18950;DHT22;9608;49.288;8.130;2023-09-18T07:21:30;20.70;99.90
18950;DHT22;9608;49.288;8.130;2023-09-18T07:23:59;20.70;99.90
18950;DHT22;9608;49.288;8.130;2023-09-18T07:26:26;20.70;99.90
18950;DHT22;9608;49.288;8.130;2023-09-18T07:28:53;20.70;99.90
18950;DHT22;9608;49.288;8.130;2023-09-18T07:31:20;20.90;99.90
18950;DHT22;9608;49.288;8.130;2023-09-18T07:33:47;20.90;99.90
18950;DHT22;9608;49.288;8.130;2023-09-18T07:36:15;21.00;99.90
18950;DHT22;9608;49.288;8.130;2023-09-18T07:38:42;21.20;99.90
18950;DHT22;9608;49.288;8.130;2023-09-18T07:41:12;21.20;99.90
18950;DHT22;9608;49.288;8.130;2023-09-18T07:43:40;21.20;99.90
18950;DHT22;9608;49.288;8.130;2023-09-18T07:46:07;21.10;99.90
18950;DHT22;9608;49.288;8.130;2023-09-18T07:48:34;21.10;99.90
18950;DHT22;9608;49.288;8.130;2023-09-18T07:51:05;21.20;99.90
18950;DHT22;9608;49.288;8.130;2023-09-18T07:53:31;21.20;99.90
18950;DHT22;9608;49.288;8.130;2023-09-18T07:55:58;21.10;99.90
18950;DHT22;9608;49.288;8.130;2023-09-18T07:58:28;21.00;99.90
18950;DHT22;9608;49.288;8.130;2023-09-18T08:00:56;20.90;99.90
18950;DHT22;9608;49.288;8.130;2023-09-18T08:03:24;20.90;99.90
18950;DHT22;9608;49.288;8.130;2023-09-18T08:05:52;20.80;99.90
18950;DHT22;9608;49.288;8.130;2023-09-18T08:08:20;20.80;99.90
18950;DHT22;9608;49.288;8.130;2023-09-18T08:10:47;20.80;99.90
18950;DHT22;9608;49.288;8.130;2023-09-18T08:13:14;20.90;99.90
18950;DHT22;9608;49.288;8.130;2023-09-18T08:15:43;20.90;99.90
18950;DHT22;9608;49.288;8.130;2023-09-18T08:18:10;20.90;99.90
18950;DHT22;9608;49.288;8.130;2023-09-18T08:20:40;20.90;99.90
18950;DHT22;9608;49.288;8.130;2023-09-18T08:23:08;21.00;99.90
18950;DHT22;9608;49.288;8.130;2023-09-18T08:25:35;21.10;99.90
18950;DHT22;9608;49.288;8.130;2023-09-18T08:28:03;21.10;99.90
18950;DHT22;9608;49.288;8.130;2023-09-18T08:30:32;21.10;99.90
18950;DHT22;9608;49.288;8.130;2023-09-18T08:33:02;21.20;99.90
18950;DHT22;9608;49.288;8.130;2023-09-18T08:35:29;21.30;99.90
18950;DHT22;9608;49.288;8.130;2023-09-18T08:37:56;21.30;99.90
18950;DHT22;9608;49.288;8.130;2023-09-18T08:40:23;21.40;99.90
18950;DHT22;9608;49.288;8.130;2023-09-18T08:42:52;21.40;99.90
18950;DHT22;9608;49.288;8.130;2023-09-18T08:45:23;21.50;99.90
18950;DHT22;9608;49.288;8.130;2023-09-18T08:47:52;21.60;99.90
18950;DHT22;9608;49.288;8.130;2023-09-18T08:50:22;21.80;99.90
18950;DHT22;9608;49.288;8.130;2023-09-18T08:52:50;22.00;99.90
18950;DHT22;9608;49.288;8.130;2023-09-18T08:55:19;22.10;99.90
18950;DHT22;9608;49.288;8.130;2023-09-18T08:57:49;22.20;99.90
18950;DHT22;9608;49.288;8.130;2023-09-18T09:00:16;22.20;99.90
18950;DHT22;9608;49.288;8.130;2023-09-18T09:02:43;22.20;99.90
18950;DHT22;9608;49.288;8.130;2023-09-18T09:05:10;22.20;99.90
18950;DHT22;9608;49.288;8.130;2023-09-18T09:07:41;22.10;99.90
18950;DHT22;9608;49.288;8.130;2023-09-18T09:10:08;21.80;99.90
18950;DHT22;9608;49.288;8.130;2023-09-18T09:12:53;21.80;99.90
18950;DHT22;9608;49.288;8.130;2023-09-18T09:15:20;21.80;99.90
18950;DHT22;9608;49.288;8.130;2023-09-18T09:17:51;21.80;99.90
18950;DHT22;9608;49.288;8.130;2023-09-18T09:20:19;21.80;99.90
18950;DHT22;9608;49.288;8.130;2023-09-18T09:22:48;21.80;99.90
18950;DHT22;9608;49.288;8.130;2023-09-18T09:25:23;21.70;99.90
18950;DHT22;9608;49.288;8.130;2023-09-18T09:27:51;21.70;99.90
18950;DHT22;9608;49.288;8.130;2023-09-18T09:30:19;21.80;99.90
18950;DHT22;9608;49.288;8.130;2023-09-18T09:32:48;21.90;99.90
18950;DHT22;9608;49.288;8.130;2023-09-18T09:35:22;22.10;99.90
18950;DHT22;9608;49.288;8.130;2023-09-18T09:38:07;22.20;99.90
18950;DHT22;9608;49.288;8.130;2023-09-18T09:40:34;22.30;99.90
18950;DHT22;9608;49.288;8.130;2023-09-18T09:43:03;22.30;99.90
18950;DHT22;9608;49.288;8.130;2023-09-18T09:45:31;22.30;99.90
18950;DHT22;9608;49.288;8.130;2023-09-18T09:48:03;22.20;99.90
18950;DHT22;9608;49.288;8.130;2023-09-18T09:50:31;22.10;99.90
18950;DHT22;9608;49.288;8.130;2023-09-18T09:52:59;22.10;99.90
18950;DHT22;9608;49.288;8.130;2023-09-18T09:55:29;22.20;99.90
18950;DHT22;9608;49.288;8.130;2023-09-18T09:57:58;22.00;99.90
18950;DHT22;9608;49.288;8.130;2023-09-18T10:00:31;21.90;99.90
18950;DHT22;9608;49.288;8.130;2023-09-18T10:03:09;21.90;99.90
18950;DHT22;9608;49.288;8.130;2023-09-18T10:05:39;22.10;99.90
18950;DHT22;9608;49.288;8.130;2023-09-18T10:08:07;22.10;99.90
18950;DHT22;9608;49.288;8.130;2023-09-18T10:10:39;22.10;99.90
18950;DHT22;9608;49.288;8.130;2023-09-18T10:13:12;22.10;99.90
18950;DHT22;9608;49.288;8.130;2023-09-18T10:15:40;22.20;99.90
18950;DHT22;9608;49.288;8.130;2023-09-18T10:18:21;22.30;99.90
18950;DHT22;9608;49.288;8.130;2023-09-18T10:20:51;22.40;99.90
18950;DHT22;9608;49.288;8.130;2023-09-18T10:23:40;22.50;99.90
18950;DHT22;9608;49.288;8.130;2023-09-18T10:26:22;22.70;99.90
18950;DHT22;9608;49.288;8.130;2023-09-18T10:28:51;22.70;99.90
18950;DHT22;9608;49.288;8.130;2023-09-18T10:31:24;22.80;99.90
18950;DHT22;9608;49.288;8.130;2023-09-18T10:33:52;22.90;99.90
18950;DHT22;9608;49.288;8.130;2023-09-18T10:36:21;23.10;99.90
18950;DHT22;9608;49.288;8.130;2023-09-18T10:38:49;23.20;99.90
18950;DHT22;9608;49.288;8.130;2023-09-18T10:41:20;23.40;99.90
18950;DHT22;9608;49.288;8.130;2023-09-18T10:43:47;23.40;99.90
18950;DHT22;9608;49.288;8.130;2023-09-18T10:46:15;23.40;99.90
18950;DHT22;9608;49.288;8.130;2023-09-18T10:48:42;23.40;99.90
18950;DHT22;9608;49.288;8.130;2023-09-18T10:51:10;23.50;99.90
18950;DHT22;9608;49.288;8.130;2023-09-18T10:53:39;23.60;99.90
18950;DHT22;9608;49.288;8.130;2023-09-18T10:56:06;23.50;99.90
18950;DHT22;9608;49.288;8.130;2023-09-18T10:58:34;23.50;99.90
18950;DHT22;9608;49.288;8.130;2023-09-18T11:01:05;23.50;99.90
18950;DHT22;9608;49.288;8.130;2023-09-18T11:03:33;23.70;99.90
18950;DHT22;9608;49.288;8.130;2023-09-18T11:06:04;23.80;99.90
18950;DHT22;9608;49.288;8.130;2023-09-18T11:08:33;23.80;99.90
18950;DHT22;9608;49.288;8.130;2023-09-18T11:11:07;24.00;99.90
18950;DHT22;9608;49.288;8.130;2023-09-18T11:13:39;24.00;99.90
18950;DHT22;9608;49.288;8.130;2023-09-18T11:16:19;24.30;99.90
18950;DHT22;9608;49.288;8.130;2023-09-18T11:19:07;24.40;99.90
18950;DHT22;9608;49.288;8.130;2023-09-18T11:21:36;24.50;99.90
18950;DHT22;9608;49.288;8.130;2023-09-18T11:24:04;24.50;99.90
18950;DHT22;9608;49.288;8.130;2023-09-18T11:26:32;24.40;99.90
18950;DHT22;9608;49.288;8.130;2023-09-18T11:29:01;24.40;99.90
18950;DHT22;9608;49.288;8.130;2023-09-18T11:31:41;24.50;99.90
18950;DHT22;9608;49.288;8.130;2023-09-18T11:34:14;24.90;99.90
18950;DHT22;9608;49.288;8.130;2023-09-18T11:36:41;25.10;99.90
18950;DHT22;9608;49.288;8.130;2023-09-18T11:39:08;25.40;99.90
18950;DHT22;9608;49.288;8.130;2023-09-18T11:41:37;25.40;99.90
18950;DHT22;9608;49.288;8.130;2023-09-18T11:44:34;25.50;99.90
18950;DHT22;9608;49.288;8.130;2023-09-18T11:47:08;25.60;99.90
18950;DHT22;9608;49.288;8.130;2023-09-18T11:49:38;25.70;99.90
18950;DHT22;9608;49.288;8.130;2023-09-18T11:52:07;25.60;99.90
18950;DHT22;9608;49.288;8.130;2023-09-18T11:54:35;25.50;99.90
18950;DHT22;9608;49.288;8.130;2023-09-18T11:57:05;25.10;99.90
18950;DHT22;9608;49.288;8.130;2023-09-18T11:59:41;25.10;99.90
18950;DHT22;9608;49.288;8.130;2023-09-18T12:02:09;25.10;99.90
18950;DHT22;9608;49.288;8.130;2023-09-18T12:04:37;25.20;99.90
18950;DHT22;9608;49.288;8.130;2023-09-18T12:07:06;25.40;99.90
18950;DHT22;9608;49.288;8.130;2023-09-18T12:09:34;25.40;99.90
18950;DHT22;9608;49.288;8.130;2023-09-18T12:12:01;25.40;99.90
18950;DHT22;9608;49.288;8.130;2023-09-18T12:14:32;25.50;99.90
18950;DHT22;9608;49.288;8.130;2023-09-18T12:17:02;25.70;99.90
18950;DHT22;9608;49.288;8.130;2023-09-18T12:19:29;25.80;99.90
18950;DHT22;9608;49.288;8.130;2023-09-18T12:21:56;25.80;99.90
18950;DHT22;9608;49.288;8.130;2023-09-18T12:24:24;25.80;99.90
18950;DHT22;9608;49.288;8.130;2023-09-18T12:26:52;25.70;99.90
18950;DHT22;9608;49.288;8.130;2023-09-18T12:29:19;25.50;99.90
18950;DHT22;9608;49.288;8.130;2023-09-18T12:31:46;25.60;99.90
18950;DHT22;9608;49.288;8.130;2023-09-18T12:34:18;25.50;99.90
18950;DHT22;9608;49.288;8.130;2023-09-18T12:36:47;25.50;99.90
18950;DHT22;9608;49.288;8.130;2023-09-18T12:39:15;25.50;99.90
18950;DHT22;9608;49.288;8.130;2023-09-18T12:41:43;25.50;99.90
18950;DHT22;9608;49.288;8.130;2023-09-18T12:44:10;25.50;99.90
18950;DHT22;9608;49.288;8.130;2023-09-18T12:46:41;25.40;99.90
18950;DHT22;9608;49.288;8.130;2023-09-18T12:49:24;25.40;99.90
18950;DHT22;9608;49.288;8.130;2023-09-18T12:52:00;25.50;99.90
18950;DHT22;9608;49.288;8.130;2023-09-18T12:54:39;25.60;99.90
18950;DHT22;9608;49.288;8.130;2023-09-18T12:57:06;25.60;99.90
18950;DHT22;9608;49.288;8.130;2023-09-18T12:59:34;25.80;99.90
18950;DHT22;9608;49.288;8.130;2023-09-18T13:02:02;25.70;99.90
18950;DHT22;9608;49.288;8.130;2023-09-18T13:04:32;25.60;99.90
18950;DHT22;9608;49.288;8.130;2023-09-18T13:07:07;25.40;99.90
18950;DHT22;9608;49.288;8.130;2023-09-18T13:09:36;25.30;99.90
18950;DHT22;9608;49.288;8.130;2023-09-18T13:12:04;25.20;99.90
18950;DHT22;9608;49.288;8.130;2023-09-18T13:14:59;25.30;99.90
18950;DHT22;9608;49.288;8.130;2023-09-18T13:17:36;25.30;99.90
18950;DHT22;9608;49.288;8.130;2023-09-18T13:20:14;25.40;99.90
18950;DHT22;9608;49.288;8.130;2023-09-18T13:22:42;25.70;99.90
18950;DHT22;9608;49.288;8.130;2023-09-18T13:25:09;25.80;99.90
18950;DHT22;9608;49.288;8.130;2023-09-18T13:27:37;25.80;99.90
18950;DHT22;9608;49.288;8.130;2023-09-18T13:30:06;26.10;99.90
18950;DHT22;9608;49.288;8.130;2023-09-18T13:32:34;26.10;99.90
18950;DHT22;9608;49.288;8.130;2023-09-18T13:35:02;26.20;99.90
18950;DHT22;9608;49.288;8.130;2023-09-18T13:37:32;26.20;99.90
18950;DHT22;9608;49.288;8.130;2023-09-18T13:39:59;26.20;99.90
18950;DHT22;9608;49.288;8.130;2023-09-18T13:42:29;26.20;99.90
18950;DHT22;9608;49.288;8.130;2023-09-18T13:44:58;25.80;99.90
18950;DHT22;9608;49.288;8.130;2023-09-18T13:47:27;25.30;99.90
18950;DHT22;9608;49.288;8.130;2023-09-18T13:49:54;25.00;99.90
18950;DHT22;9608;49.288;8.130;2023-09-18T13:52:25;25.20;99.90
18950;DHT22;9608;49.288;8.130;2023-09-18T13:54:53;25.30;99.90
18950;DHT22;9608;49.288;8.130;2023-09-18T13:57:20;25.30;99.90
18950;DHT22;9608;49.288;8.130;2023-09-18T13:59:48;25.30;99.90
18950;DHT22;9608;49.288;8.130;2023-09-18T14:02:17;25.30;99.90
18950;DHT22;9608;49.288;8.130;2023-09-18T14:04:44;25.50;99.90
18950;DHT22;9608;49.288;8.130;2023-09-18T14:07:11;25.30;99.90
18950;DHT22;9608;49.288;8.130;2023-09-18T14:09:38;25.30;99.90
18950;DHT22;9608;49.288;8.130;2023-09-18T14:12:07;25.60;99.90
18950;DHT22;9608;49.288;8.130;2023-09-18T14:14:34;25.80;99.90
18950;DHT22;9608;49.288;8.130;2023-09-18T14:17:01;25.80;99.90
18950;DHT22;9608;49.288;8.130;2023-09-18T14:19:29;25.80;99.90
18950;DHT22;9608;49.288;8.130;2023-09-18T14:21:55;25.90;99.90
18950;DHT22;9608;49.288;8.130;2023-09-18T14:24:22;25.80;99.90
18950;DHT22;9608;49.288;8.130;2023-09-18T14:26:51;26.00;99.90
18950;DHT22;9608;49.288;8.130;2023-09-18T14:29:19;26.10;99.90
18950;DHT22;9608;49.288;8.130;2023-09-18T14:31:46;26.10;99.90
18950;DHT22;9608;49.288;8.130;2023-09-18T14:34:12;26.20;99.90
18950;DHT22;9608;49.288;8.130;2023-09-18T14:36:39;26.20;99.90
18950;DHT22;9608;49.288;8.130;2023-09-18T14:39:06;26.10;99.90
18950;DHT22;9608;49.288;8.130;2023-09-18T14:41:34;26.00;99.90
18950;DHT22;9608;49.288;8.130;2023-09-18T14:44:01;26.00;99.90
18950;DHT22;9608;49.288;8.130;2023-09-18T14:46:30;26.00;99.90
18950;DHT22;9608;49.288;8.130;2023-09-18T14:48:58;26.10;99.90
18950;DHT22;9608;49.288;8.130;2023-09-18T14:51:25;25.90;99.90
18950;DHT22;9608;49.288;8.130;2023-09-18T14:53:53;25.60;99.90
18950;DHT22;9608;49.288;8.130;2023-09-18T14:56:20;25.50;99.90
18950;DHT22;9608;49.288;8.130;2023-09-18T14:58:47;25.50;99.90
18950;DHT22;9608;49.288;8.130;2023-09-18T15:01:14;25.80;99.90
18950;DHT22;9608;49.288;8.130;2023-09-18T15:03:42;25.90;99.90
18950;DHT22;9608;49.288;8.130;2023-09-18T15:06:10;26.00;99.90
18950;DHT22;9608;49.288;8.130;2023-09-18T15:08:37;26.00;99.90
18950;DHT22;9608;49.288;8.130;2023-09-18T15:11:04;25.80;99.90
18950;DHT22;9608;49.288;8.130;2023-09-18T15:13:30;25.50;99.90
18950;DHT22;9608;49.288;8.130;2023-09-18T15:15:57;25.30;99.90
18950;DHT22;9608;49.288;8.130;2023-09-18T15:18:25;25.40;99.90
18950;DHT22;9608;49.288;8.130;2023-09-18T15:20:53;25.40;99.90
18950;DHT22;9608;49.288;8.130;2023-09-18T15:23:20;25.20;99.90
18950;DHT22;9608;49.288;8.130;2023-09-18T15:25:48;25.00;99.90
18950;DHT22;9608;49.288;8.130;2023-09-18T15:28:15;24.90;99.90
18950;DHT22;9608;49.288;8.130;2023-09-18T15:30:42;24.80;99.90
18950;DHT22;9608;49.288;8.130;2023-09-18T15:33:09;24.70;99.90
18950;DHT22;9608;49.288;8.130;2023-09-18T15:35:36;24.70;99.90
18950;DHT22;9608;49.288;8.130;2023-09-18T15:38:04;24.50;99.90
18950;DHT22;9608;49.288;8.130;2023-09-18T15:40:32;24.50;99.90
18950;DHT22;9608;49.288;8.130;2023-09-18T15:42:59;24.40;99.90
18950;DHT22;9608;49.288;8.130;2023-09-18T15:45:26;24.40;99.90
18950;DHT22;9608;49.288;8.130;2023-09-18T15:47:53;24.50;99.90
18950;DHT22;9608;49.288;8.130;2023-09-18T15:50:19;24.30;99.90
18950;DHT22;9608;49.288;8.130;2023-09-18T15:52:46;24.10;99.90